createdAt,value
2022-10-23T00:01:46.784Z,12.60
2022-10-23T00:04:22.086Z,12.55
2022-10-23T00:06:50.743Z,12.53
2022-10-23T00:09:24.452Z,12.50
2022-10-23T00:11:53.238Z,12.50
2022-10-23T00:14:27.370Z,12.48
2022-10-23T00:16:54.671Z,12.53
2022-10-23T00:19:21.882Z,12.56
2022-10-23T00:21:49.328Z,12.61
2022-10-23T00:24:16.635Z,12.62
2022-10-23T00:26:43.887Z,12.62
2022-10-23T00:29:11.990Z,12.67
2022-10-23T00:31:39.717Z,12.67
2022-10-23T00:34:08.561Z,12.69
2022-10-23T00:36:38.009Z,12.68
2022-10-23T00:39:06.297Z,12.68
2022-10-23T00:41:34.560Z,12.65
2022-10-23T00:44:31.792Z,12.64
2022-10-23T00:47:00.275Z,12.62
2022-10-23T00:49:28.342Z,12.59
2022-10-23T00:52:07.278Z,12.59
2022-10-23T00:54:41.075Z,12.58
2022-10-23T00:57:15.026Z,12.61
2022-10-23T00:59:42.982Z,12.61
2022-10-23T01:02:10.708Z,12.61
2022-10-23T01:04:38.386Z,12.59
2022-10-23T01:07:19.809Z,12.59
2022-10-23T01:10:13.184Z,12.58
2022-10-23T01:13:14.274Z,12.58
2022-10-23T01:16:05.289Z,12.57
2022-10-23T01:18:59.143Z,12.57
2022-10-23T01:21:51.219Z,12.55
2022-10-23T01:24:57.814Z,12.56
2022-10-23T01:27:35.580Z,12.55
2022-10-23T01:30:10.353Z,12.55
2022-10-23T01:33:16.176Z,12.58
2022-10-23T01:36:06.096Z,12.57
2022-10-23T01:38:54.660Z,12.55
2022-10-23T01:41:44.236Z,12.50
2022-10-23T01:44:51.758Z,12.49
2022-10-23T01:47:28.928Z,12.48
2022-10-23T01:50:13.255Z,12.47
2022-10-23T01:52:43.097Z,12.43
2022-10-23T01:55:13.442Z,12.39
2022-10-23T01:57:44.711Z,12.35
2022-10-23T02:00:18.713Z,12.31
2022-10-23T02:02:55.314Z,12.29
2022-10-23T02:05:31.643Z,12.25
2022-10-23T02:08:01.232Z,12.20
2022-10-23T02:11:16.703Z,12.15
2022-10-23T02:14:18.990Z,12.06
2022-10-23T02:17:24.665Z,12.00
2022-10-23T02:20:35.894Z,11.96
2022-10-23T02:23:36.062Z,11.91
2022-10-23T02:26:19.476Z,11.91
2022-10-23T02:29:25.934Z,11.87
2022-10-23T02:31:53.440Z,11.92
2022-10-23T02:34:20.750Z,11.96
2022-10-23T02:36:51.009Z,11.98
2022-10-23T02:39:27.464Z,12.04
2022-10-23T02:42:22.074Z,12.07
2022-10-23T02:45:36.150Z,12.09
2022-10-23T02:48:38.988Z,12.05
2022-10-23T02:52:02.879Z,12.04
2022-10-23T02:55:04.046Z,12.04
2022-10-23T02:58:05.182Z,12.04
2022-10-23T03:00:37.577Z,12.01
2022-10-23T03:03:27.768Z,12.00
2022-10-23T03:05:55.840Z,11.98
2022-10-23T03:08:23.258Z,11.98
2022-10-23T03:10:51.389Z,11.98
2022-10-23T03:13:20.554Z,11.97
2022-10-23T03:15:50.781Z,11.99
2022-10-23T03:18:18.041Z,12.01
2022-10-23T03:20:49.294Z,12.02
2022-10-23T03:23:16.584Z,12.03
2022-10-23T03:25:43.919Z,12.08
2022-10-23T03:28:24.472Z,12.10
2022-10-23T03:30:52.408Z,12.14
2022-10-23T03:33:19.622Z,12.16
2022-10-23T03:35:49.620Z,12.17
2022-10-23T03:38:17.266Z,12.19
2022-10-23T03:40:44.711Z,12.18
2022-10-23T03:43:13.906Z,12.20
2022-10-23T03:45:41.430Z,12.22
2022-10-23T03:48:08.812Z,12.22
2022-10-23T03:50:36.790Z,12.20
2022-10-23T03:53:05.806Z,12.20
2022-10-23T03:55:34.779Z,12.19
2022-10-23T03:58:02.057Z,12.18
2022-10-23T04:00:29.409Z,12.19
2022-10-23T04:02:56.653Z,12.20
2022-10-23T04:05:23.844Z,12.25
2022-10-23T04:07:55.395Z,12.23
2022-10-23T04:10:25.538Z,12.25
2022-10-23T04:12:52.851Z,12.26
2022-10-23T04:15:20.148Z,12.28
2022-10-23T04:17:50.119Z,12.29
2022-10-23T04:20:20.505Z,12.28
2022-10-23T04:22:50.668Z,12.27
2022-10-23T04:25:20.233Z,12.26
2022-10-23T04:27:48.570Z,12.25
2022-10-23T04:30:15.906Z,12.26
2022-10-23T04:32:45.637Z,12.24
2022-10-23T04:35:12.816Z,12.24
2022-10-23T04:37:40.144Z,12.28
2022-10-23T04:40:09.037Z,12.30
2022-10-23T04:42:38.172Z,12.32
2022-10-23T04:45:06.668Z,12.34
2022-10-23T04:47:34.810Z,12.36
2022-10-23T04:50:04.821Z,12.40
2022-10-23T04:53:10.577Z,12.43
2022-10-23T04:56:07.508Z,12.46
2022-10-23T04:58:51.454Z,12.46
2022-10-23T05:01:19.299Z,12.48
2022-10-23T05:03:48.057Z,12.51
2022-10-23T05:06:15.811Z,12.52
2022-10-23T05:09:12.309Z,12.55
2022-10-23T05:12:02.413Z,12.54
2022-10-23T05:14:30.418Z,12.52
2022-10-23T05:17:16.262Z,12.53
2022-10-23T05:19:56.281Z,12.53
2022-10-23T05:22:32.077Z,12.52
2022-10-23T05:25:01.910Z,12.51
2022-10-23T05:27:31.990Z,12.54
2022-10-23T05:29:59.272Z,12.54
2022-10-23T05:32:32.228Z,12.57
2022-10-23T05:35:03.888Z,12.57
2022-10-23T05:37:31.752Z,12.54
2022-10-23T05:40:12.740Z,12.57
2022-10-23T05:42:41.931Z,12.57
2022-10-23T05:45:11.989Z,12.57
2022-10-23T05:48:05.844Z,12.56
2022-10-23T05:51:11.693Z,12.55
2022-10-23T05:54:02.133Z,12.55
2022-10-23T05:56:44.123Z,12.57
2022-10-23T05:59:22.961Z,12.58
2022-10-23T06:02:00.533Z,12.59
2022-10-23T06:04:42.790Z,12.59
2022-10-23T06:07:31.241Z,12.60
2022-10-23T06:10:06.291Z,12.59
2022-10-23T06:12:36.712Z,12.57
2022-10-23T06:15:06.200Z,12.56
2022-10-23T06:17:54.191Z,12.55
2022-10-23T06:20:25.287Z,12.58
2022-10-23T06:23:07.887Z,12.59
2022-10-23T06:26:00.990Z,12.58
2022-10-23T06:28:39.305Z,12.59
2022-10-23T06:31:12.507Z,12.61
2022-10-23T06:33:41.191Z,12.63
2022-10-23T06:36:10.702Z,12.64
2022-10-23T06:38:40.774Z,12.65
2022-10-23T06:41:16.767Z,12.70
2022-10-23T06:43:51.022Z,12.72
2022-10-23T06:46:41.246Z,12.72
2022-10-23T06:49:28.426Z,12.73
2022-10-23T06:51:58.757Z,12.76
2022-10-23T06:54:25.951Z,12.78
2022-10-23T06:57:11.513Z,12.81
2022-10-23T06:59:44.028Z,12.85
2022-10-23T07:02:11.401Z,12.86
2022-10-23T07:04:41.214Z,12.86
2022-10-23T07:07:14.521Z,12.88
2022-10-23T07:09:50.684Z,12.91
2022-10-23T07:12:20.604Z,12.94
2022-10-23T07:14:53.704Z,12.93
2022-10-23T07:17:21.925Z,12.96
2022-10-23T07:19:49.243Z,13.00
2022-10-23T07:22:16.606Z,13.04
2022-10-23T07:25:08.659Z,13.12
2022-10-23T07:27:39.465Z,13.08
2022-10-23T07:30:10.111Z,13.10
2022-10-23T07:32:46.503Z,13.12
2022-10-23T07:35:34.408Z,13.16
2022-10-23T07:38:08.239Z,13.20
2022-10-23T07:40:39.066Z,13.21
2022-10-23T07:43:09.348Z,13.24
2022-10-23T07:45:36.836Z,13.27
2022-10-23T07:48:12.740Z,13.32
2022-10-23T07:51:08.040Z,13.31
2022-10-23T07:53:39.435Z,13.33
2022-10-23T07:56:38.815Z,13.42
2022-10-23T07:59:37.222Z,13.50
2022-10-23T08:02:15.364Z,13.52
2022-10-23T08:04:43.607Z,13.56
2022-10-23T08:07:21.273Z,13.60
2022-10-23T08:09:54.458Z,13.64
2022-10-23T08:12:21.629Z,13.67
2022-10-23T08:14:48.934Z,13.74
2022-10-23T08:17:17.445Z,13.80
2022-10-23T08:20:11.292Z,13.89
2022-10-23T08:22:42.738Z,13.94
2022-10-23T08:25:11.396Z,13.98
2022-10-23T08:27:39.092Z,14.04
2022-10-23T08:30:07.517Z,14.10
2022-10-23T08:32:34.672Z,14.15
2022-10-23T08:35:03.433Z,14.23
2022-10-23T08:37:32.619Z,14.27
2022-10-23T08:40:00.288Z,14.35
2022-10-23T08:42:58.986Z,14.41
2022-10-23T08:45:42.871Z,14.42
2022-10-23T08:48:39.193Z,14.50
2022-10-23T08:51:39.932Z,14.52
2022-10-23T08:54:26.966Z,14.53
2022-10-23T08:57:18.098Z,14.53
2022-10-23T08:59:59.178Z,14.57
2022-10-23T09:02:27.446Z,14.62
2022-10-23T09:04:58.666Z,14.62
2022-10-23T09:07:53.180Z,14.65
2022-10-23T09:11:10.597Z,14.72
2022-10-23T09:14:13.896Z,14.73
2022-10-23T09:17:23.005Z,14.77
2022-10-23T09:20:41.165Z,14.81
2022-10-23T09:23:24.296Z,14.81
2022-10-23T09:25:57.018Z,14.83
2022-10-23T09:28:48.406Z,14.87
2022-10-23T09:31:19.595Z,14.94
2022-10-23T09:34:01.628Z,14.96
2022-10-23T09:36:29.841Z,15.01
2022-10-23T09:39:00.552Z,15.06
2022-10-23T09:41:43.114Z,15.06
2022-10-23T09:44:33.505Z,15.11
2022-10-23T09:47:06.721Z,15.13
2022-10-23T09:49:35.272Z,15.13
2022-10-23T09:52:08.134Z,15.19
2022-10-23T09:54:59.059Z,15.21
2022-10-23T09:57:43.290Z,15.21
2022-10-23T10:00:26.900Z,15.20
2022-10-23T10:03:06.949Z,15.24
2022-10-23T10:05:43.932Z,15.27
2022-10-23T10:08:58.434Z,15.28
2022-10-23T10:11:43.390Z,15.33
2022-10-23T10:14:35.140Z,15.40
2022-10-23T10:17:49.649Z,15.44
2022-10-23T10:20:40.363Z,15.47
2022-10-23T10:23:55.770Z,15.49
2022-10-23T10:26:52.721Z,15.51
2022-10-23T10:30:10.651Z,15.51
2022-10-23T10:32:53.997Z,15.52
2022-10-23T10:35:56.837Z,15.58
2022-10-23T10:38:51.608Z,15.60
2022-10-23T10:42:10.984Z,15.63
2022-10-23T10:45:17.631Z,15.65
2022-10-23T10:48:23.625Z,15.70
2022-10-23T10:51:51.527Z,15.79
2022-10-23T10:55:14.157Z,15.89
2022-10-23T10:58:17.410Z,15.97
